sensor_id;sensor_type;location;lat;lon;timestamp;pressure;altitude;pressure_sealevel;temperature;humidity
15817;BME280;8009;50.070;8.232;2023-05-03T00:00:24;101067.38;;;9.42;56.10
15817;BME280;8009;50.070;8.232;2023-05-03T00:02:58;101066.22;;;9.64;55.64
15817;BME280;8009;50.070;8.232;2023-05-03T00:05:30;101064.31;;;9.66;56.36
15817;BME280;8009;50.070;8.232;2023-05-03T00:07:59;101057.63;;;9.24;56.92
15817;BME280;8009;50.070;8.232;2023-05-03T00:10:27;101062.34;;;9.19;56.76
15817;BME280;8009;50.070;8.232;2023-05-03T00:12:56;101068.09;;;8.95;57.63
15817;BME280;8009;50.070;8.232;2023-05-03T00:15:24;101071.09;;;8.72;58.26
15817;BME280;8009;50.070;8.232;2023-05-03T00:17:53;101061.41;;;8.50;58.93
15817;BME280;8009;50.070;8.232;2023-05-03T00:20:24;101061.69;;;8.98;57.74
15817;BME280;8009;50.070;8.232;2023-05-03T00:22:52;101062.69;;;8.95;57.55
15817;BME280;8009;50.070;8.232;2023-05-03T00:25:20;101064.22;;;8.11;59.76
15817;BME280;8009;50.070;8.232;2023-05-03T00:27:49;101061.97;;;8.40;59.06
15817;BME280;8009;50.070;8.232;2023-05-03T00:30:17;101061.59;;;8.65;58.04
15817;BME280;8009;50.070;8.232;2023-05-03T00:32:46;101054.38;;;8.65;58.22
15817;BME280;8009;50.070;8.232;2023-05-03T00:35:16;101054.84;;;8.73;58.58
15817;BME280;8009;50.070;8.232;2023-05-03T00:37:47;101048.84;;;8.68;57.81
15817;BME280;8009;50.070;8.232;2023-05-03T00:40:15;101056.63;;;8.38;60.46
15817;BME280;8009;50.070;8.232;2023-05-03T00:42:44;101040.69;;;8.87;58.05
15817;BME280;8009;50.070;8.232;2023-05-03T00:45:13;101038.56;;;8.59;58.78
15817;BME280;8009;50.070;8.232;2023-05-03T00:47:41;101034.50;;;7.95;60.29
15817;BME280;8009;50.070;8.232;2023-05-03T00:50:10;101036.94;;;7.82;60.70
15817;BME280;8009;50.070;8.232;2023-05-03T00:52:39;101036.69;;;7.68;61.39
15817;BME280;8009;50.070;8.232;2023-05-03T00:55:10;101038.88;;;7.98;61.15
15817;BME280;8009;50.070;8.232;2023-05-03T00:57:39;101035.25;;;7.80;60.64
15817;BME280;8009;50.070;8.232;2023-05-03T01:00:08;101039.25;;;7.52;61.94
15817;BME280;8009;50.070;8.232;2023-05-03T01:02:37;101037.16;;;8.14;60.38
15817;BME280;8009;50.070;8.232;2023-05-03T01:05:06;101032.75;;;8.13;59.62
15817;BME280;8009;50.070;8.232;2023-05-03T01:07:41;101032.63;;;7.78;60.64
15817;BME280;8009;50.070;8.232;2023-05-03T01:10:22;101028.72;;;8.22;59.84
15817;BME280;8009;50.070;8.232;2023-05-03T01:12:59;101037.97;;;7.97;59.66
15817;BME280;8009;50.070;8.232;2023-05-03T01:15:40;101032.84;;;7.74;60.23
15817;BME280;8009;50.070;8.232;2023-05-03T01:18:15;101026.88;;;8.41;57.79
15817;BME280;8009;50.070;8.232;2023-05-03T01:20:47;101027.94;;;7.25;61.85
15817;BME280;8009;50.070;8.232;2023-05-03T01:23:27;101024.72;;;7.75;60.13
15817;BME280;8009;50.070;8.232;2023-05-03T01:26:13;101035.28;;;7.22;62.35
15817;BME280;8009;50.070;8.232;2023-05-03T01:28:42;101021.78;;;7.42;61.08
15817;BME280;8009;50.070;8.232;2023-05-03T01:31:11;101005.69;;;7.61;60.50
15817;BME280;8009;50.070;8.232;2023-05-03T01:46:15;101016.88;;;7.52;61.41
15817;BME280;8009;50.070;8.232;2023-05-03T01:48:43;101015.22;;;7.10;62.02
15817;BME280;8009;50.070;8.232;2023-05-03T01:58:03;101019.91;;;7.44;61.88
15817;BME280;8009;50.070;8.232;2023-05-03T02:03:45;101027.06;;;7.25;61.85
15817;BME280;8009;50.070;8.232;2023-05-03T02:06:13;101016.03;;;6.71;63.19
15817;BME280;8009;50.070;8.232;2023-05-03T02:08:41;101033.22;;;6.88;63.24
15817;BME280;8009;50.070;8.232;2023-05-03T02:11:10;101030.59;;;6.86;62.39
15817;BME280;8009;50.070;8.232;2023-05-03T02:13:38;101030.66;;;6.64;63.21
15817;BME280;8009;50.070;8.232;2023-05-03T02:16:06;101033.44;;;6.83;62.43
15817;BME280;8009;50.070;8.232;2023-05-03T02:18:35;101034.00;;;7.10;61.11
15817;BME280;8009;50.070;8.232;2023-05-03T02:21:07;101039.72;;;6.82;62.48
15817;BME280;8009;50.070;8.232;2023-05-03T02:23:35;101041.13;;;7.50;60.07
15817;BME280;8009;50.070;8.232;2023-05-03T02:26:10;101041.38;;;7.05;60.86
15817;BME280;8009;50.070;8.232;2023-05-03T02:31:50;101046.75;;;7.25;60.25
15817;BME280;8009;50.070;8.232;2023-05-03T02:34:19;101040.47;;;7.06;61.46
15817;BME280;8009;50.070;8.232;2023-05-03T02:36:50;101049.56;;;7.22;61.17
15817;BME280;8009;50.070;8.232;2023-05-03T02:39:18;101036.69;;;7.68;59.54
15817;BME280;8009;50.070;8.232;2023-05-03T02:41:46;101040.47;;;7.25;60.34
15817;BME280;8009;50.070;8.232;2023-05-03T02:44:15;101036.75;;;7.29;60.26
15817;BME280;8009;50.070;8.232;2023-05-03T02:46:43;101031.53;;;6.85;62.00
15817;BME280;8009;50.070;8.232;2023-05-03T02:49:12;101039.13;;;6.96;61.58
15817;BME280;8009;50.070;8.232;2023-05-03T02:51:40;101034.44;;;6.80;62.05
15817;BME280;8009;50.070;8.232;2023-05-03T02:54:25;101025.34;;;7.62;59.37
15817;BME280;8009;50.070;8.232;2023-05-03T02:56:53;101029.34;;;7.34;59.87
15817;BME280;8009;50.070;8.232;2023-05-03T02:59:22;101025.09;;;7.28;59.49
15817;BME280;8009;50.070;8.232;2023-05-03T03:01:50;101022.16;;;7.72;58.73
15817;BME280;8009;50.070;8.232;2023-05-03T03:04:18;101027.00;;;7.26;60.33
15817;BME280;8009;50.070;8.232;2023-05-03T03:06:46;101015.00;;;7.15;60.51
15817;BME280;8009;50.070;8.232;2023-05-03T03:09:17;101016.69;;;6.97;61.16
15817;BME280;8009;50.070;8.232;2023-05-03T03:11:50;101020.72;;;7.07;60.71
15817;BME280;8009;50.070;8.232;2023-05-03T03:14:18;101014.66;;;7.02;60.88
15817;BME280;8009;50.070;8.232;2023-05-03T03:16:50;101014.72;;;7.40;59.67
15817;BME280;8009;50.070;8.232;2023-05-03T03:19:18;101009.91;;;7.08;60.80
15817;BME280;8009;50.070;8.232;2023-05-03T03:21:47;101010.16;;;7.42;59.71
15817;BME280;8009;50.070;8.232;2023-05-03T03:27:18;101004.00;;;7.00;61.47
15817;BME280;8009;50.070;8.232;2023-05-03T03:30:16;101004.63;;;7.26;60.47
15817;BME280;8009;50.070;8.232;2023-05-03T03:42:21;100998.13;;;7.69;59.37
15817;BME280;8009;50.070;8.232;2023-05-03T03:44:50;101009.66;;;7.33;59.29
15817;BME280;8009;50.070;8.232;2023-05-03T03:47:18;101011.78;;;7.46;59.12
15817;BME280;8009;50.070;8.232;2023-05-03T03:50:03;101008.44;;;7.41;59.74
15817;BME280;8009;50.070;8.232;2023-05-03T03:52:32;101017.66;;;7.73;57.99
15817;BME280;8009;50.070;8.232;2023-05-03T03:55:00;101014.19;;;7.71;58.10
15817;BME280;8009;50.070;8.232;2023-05-03T03:57:34;101016.06;;;7.50;59.06
15817;BME280;8009;50.070;8.232;2023-05-03T04:00:03;101021.06;;;7.39;59.58
15817;BME280;8009;50.070;8.232;2023-05-03T04:02:37;101026.72;;;7.51;59.19
15817;BME280;8009;50.070;8.232;2023-05-03T04:08:23;101035.31;;;7.41;59.38
15817;BME280;8009;50.070;8.232;2023-05-03T04:10:52;101038.66;;;7.65;59.14
15817;BME280;8009;50.070;8.232;2023-05-03T04:13:23;101031.38;;;7.08;60.61
15817;BME280;8009;50.070;8.232;2023-05-03T04:15:55;101035.00;;;7.07;60.26
15817;BME280;8009;50.070;8.232;2023-05-03T04:18:25;101033.34;;;7.82;58.50
15817;BME280;8009;50.070;8.232;2023-05-03T04:20:53;101040.91;;;6.75;60.94
15817;BME280;8009;50.070;8.232;2023-05-03T04:23:22;101043.44;;;7.77;57.77
15817;BME280;8009;50.070;8.232;2023-05-03T04:29:33;101045.38;;;6.76;60.34
15817;BME280;8009;50.070;8.232;2023-05-03T04:35:13;101030.88;;;7.96;56.30
15817;BME280;8009;50.070;8.232;2023-05-03T05:03:10;101041.03;;;7.90;57.37
15817;BME280;8009;50.070;8.232;2023-05-03T05:05:38;101039.16;;;7.73;58.01
15817;BME280;8009;50.070;8.232;2023-05-03T05:08:06;101038.56;;;7.47;58.73
15817;BME280;8009;50.070;8.232;2023-05-03T05:10:36;101040.84;;;7.94;56.58
15817;BME280;8009;50.070;8.232;2023-05-03T05:13:05;101045.50;;;8.46;55.92
15817;BME280;8009;50.070;8.232;2023-05-03T05:15:33;101041.78;;;8.48;55.47
15817;BME280;8009;50.070;8.232;2023-05-03T05:18:02;101038.53;;;8.42;56.44
15817;BME280;8009;50.070;8.232;2023-05-03T05:20:33;101039.09;;;8.29;57.55
15817;BME280;8009;50.070;8.232;2023-05-03T05:23:01;101038.31;;;8.64;56.17
15817;BME280;8009;50.070;8.232;2023-05-03T05:25:31;101032.38;;;8.74;56.37
15817;BME280;8009;50.070;8.232;2023-05-03T05:27:59;101040.13;;;8.63;56.56
15817;BME280;8009;50.070;8.232;2023-05-03T05:30:28;101028.84;;;9.07;53.08
15817;BME280;8009;50.070;8.232;2023-05-03T05:32:56;101037.44;;;8.98;53.32
15817;BME280;8009;50.070;8.232;2023-05-03T05:35:24;101034.28;;;9.23;53.64
15817;BME280;8009;50.070;8.232;2023-05-03T05:37:55;101035.50;;;9.17;52.66
15817;BME280;8009;50.070;8.232;2023-05-03T05:40:23;101041.19;;;9.28;52.14
15817;BME280;8009;50.070;8.232;2023-05-03T05:42:52;101040.78;;;9.19;52.91
15817;BME280;8009;50.070;8.232;2023-05-03T05:45:20;101044.91;;;9.59;52.53
15817;BME280;8009;50.070;8.232;2023-05-03T05:47:48;101041.25;;;9.27;51.87
15817;BME280;8009;50.070;8.232;2023-05-03T05:50:17;101043.34;;;9.22;52.78
15817;BME280;8009;50.070;8.232;2023-05-03T05:52:45;101040.81;;;9.68;51.75
15817;BME280;8009;50.070;8.232;2023-05-03T05:55:16;101038.13;;;9.68;51.41
15817;BME280;8009;50.070;8.232;2023-05-03T05:57:45;101039.09;;;9.67;50.91
15817;BME280;8009;50.070;8.232;2023-05-03T06:00:14;101036.88;;;9.58;51.93
15817;BME280;8009;50.070;8.232;2023-05-03T06:02:43;101028.84;;;9.89;50.85
15817;BME280;8009;50.070;8.232;2023-05-03T06:05:12;101020.16;;;10.00;49.76
15817;BME280;8009;50.070;8.232;2023-05-03T06:07:40;101020.50;;;9.94;50.30
15817;BME280;8009;50.070;8.232;2023-05-03T06:10:09;101017.88;;;10.08;50.11
15817;BME280;8009;50.070;8.232;2023-05-03T06:12:40;101035.19;;;10.20;49.77
15817;BME280;8009;50.070;8.232;2023-05-03T06:15:09;101041.19;;;10.41;49.14
15817;BME280;8009;50.070;8.232;2023-05-03T06:20:12;101033.50;;;10.79;49.41
15817;BME280;8009;50.070;8.232;2023-05-03T06:48:33;101039.59;;;11.56;45.64
15817;BME280;8009;50.070;8.232;2023-05-03T06:51:02;101052.38;;;10.95;45.73
15817;BME280;8009;50.070;8.232;2023-05-03T06:53:31;101049.09;;;10.90;46.23
15817;BME280;8009;50.070;8.232;2023-05-03T06:55:59;101034.75;;;11.32;45.29
15817;BME280;8009;50.070;8.232;2023-05-03T06:58:28;101032.56;;;11.39;45.33
15817;BME280;8009;50.070;8.232;2023-05-03T07:00:56;101029.13;;;11.78;44.05
15817;BME280;8009;50.070;8.232;2023-05-03T07:03:24;101030.13;;;12.85;41.90
15817;BME280;8009;50.070;8.232;2023-05-03T07:05:55;101037.28;;;12.34;43.08
15817;BME280;8009;50.070;8.232;2023-05-03T07:08:24;101038.63;;;11.71;44.66
15817;BME280;8009;50.070;8.232;2023-05-03T07:10:52;101041.72;;;11.79;44.15
15817;BME280;8009;50.070;8.232;2023-05-03T07:13:20;101038.53;;;11.73;44.48
15817;BME280;8009;50.070;8.232;2023-05-03T07:15:49;101038.94;;;11.95;44.39
15817;BME280;8009;50.070;8.232;2023-05-03T07:18:17;101041.31;;;12.00;44.10
15817;BME280;8009;50.070;8.232;2023-05-03T07:20:46;101042.84;;;12.04;44.79
15817;BME280;8009;50.070;8.232;2023-05-03T07:23:17;101032.16;;;12.02;43.97
15817;BME280;8009;50.070;8.232;2023-05-03T07:25:45;101043.50;;;12.22;44.24
15817;BME280;8009;50.070;8.232;2023-05-03T07:28:15;101040.84;;;12.34;43.42
15817;BME280;8009;50.070;8.232;2023-05-03T07:30:46;101039.84;;;12.08;44.77
15817;BME280;8009;50.070;8.232;2023-05-03T07:33:15;101032.59;;;12.36;43.50
15817;BME280;8009;50.070;8.232;2023-05-03T07:35:44;101034.50;;;12.21;43.68
15817;BME280;8009;50.070;8.232;2023-05-03T07:38:13;101029.97;;;12.22;43.29
15817;BME280;8009;50.070;8.232;2023-05-03T07:40:44;101037.41;;;12.18;44.20
15817;BME280;8009;50.070;8.232;2023-05-03T07:43:13;101024.44;;;12.63;42.72
15817;BME280;8009;50.070;8.232;2023-05-03T07:45:42;101027.13;;;12.50;43.72
15817;BME280;8009;50.070;8.232;2023-05-03T07:48:11;101033.84;;;12.44;43.44
15817;BME280;8009;50.070;8.232;2023-05-03T07:50:40;101029.31;;;12.58;42.51
15817;BME280;8009;50.070;8.232;2023-05-03T07:53:10;101021.59;;;12.79;42.39
15817;BME280;8009;50.070;8.232;2023-05-03T07:55:38;101030.00;;;12.74;42.52
15817;BME280;8009;50.070;8.232;2023-05-03T07:58:09;101019.22;;;12.87;41.59
15817;BME280;8009;50.070;8.232;2023-05-03T08:00:39;101014.66;;;12.87;42.02
15817;BME280;8009;50.070;8.232;2023-05-03T08:03:07;101017.34;;;12.75;42.45
15817;BME280;8009;50.070;8.232;2023-05-03T08:05:35;101016.38;;;12.88;42.44
15817;BME280;8009;50.070;8.232;2023-05-03T08:08:04;101011.66;;;13.17;41.89
15817;BME280;8009;50.070;8.232;2023-05-03T08:10:33;101008.72;;;13.21;42.19
15817;BME280;8009;50.070;8.232;2023-05-03T08:13:03;101010.53;;;13.20;41.97
15817;BME280;8009;50.070;8.232;2023-05-03T08:15:34;101007.09;;;13.05;41.74
15817;BME280;8009;50.070;8.232;2023-05-03T08:18:04;101015.03;;;13.59;40.97
15817;BME280;8009;50.070;8.232;2023-05-03T08:20:32;101016.66;;;13.49;40.96
15817;BME280;8009;50.070;8.232;2023-05-03T08:23:03;101010.81;;;13.30;41.79
15817;BME280;8009;50.070;8.232;2023-05-03T08:25:32;101007.44;;;13.39;42.27
15817;BME280;8009;50.070;8.232;2023-05-03T08:28:01;101012.09;;;13.50;41.42
15817;BME280;8009;50.070;8.232;2023-05-03T08:30:35;101019.78;;;13.69;41.11
15817;BME280;8009;50.070;8.232;2023-05-03T08:33:03;101015.38;;;14.28;40.00
15817;BME280;8009;50.070;8.232;2023-05-03T08:35:34;101002.97;;;14.48;39.74
15817;BME280;8009;50.070;8.232;2023-05-03T08:38:02;101002.13;;;14.48;39.28
15817;BME280;8009;50.070;8.232;2023-05-03T08:40:31;101012.59;;;14.17;39.92
15817;BME280;8009;50.070;8.232;2023-05-03T08:43:06;101007.38;;;14.38;39.88
15817;BME280;8009;50.070;8.232;2023-05-03T08:45:38;101013.63;;;14.27;39.43
15817;BME280;8009;50.070;8.232;2023-05-03T08:48:06;101003.34;;;14.44;38.77
15817;BME280;8009;50.070;8.232;2023-05-03T08:50:35;101011.88;;;14.26;40.00
15817;BME280;8009;50.070;8.232;2023-05-03T08:53:07;101010.34;;;13.61;40.04
15817;BME280;8009;50.070;8.232;2023-05-03T08:55:35;100995.50;;;14.52;40.44
15817;BME280;8009;50.070;8.232;2023-05-03T08:58:06;100991.41;;;14.81;39.80
15817;BME280;8009;50.070;8.232;2023-05-03T09:00:39;101001.66;;;14.78;38.46
15817;BME280;8009;50.070;8.232;2023-05-03T09:03:09;100991.19;;;14.96;37.33
15817;BME280;8009;50.070;8.232;2023-05-03T09:05:37;100989.75;;;15.25;37.70
15817;BME280;8009;50.070;8.232;2023-05-03T09:08:09;100984.31;;;15.25;36.74
15817;BME280;8009;50.070;8.232;2023-05-03T09:10:40;100986.78;;;15.96;35.83
15817;BME280;8009;50.070;8.232;2023-05-03T09:13:09;100980.22;;;16.42;36.50
15817;BME280;8009;50.070;8.232;2023-05-03T09:15:41;100974.38;;;16.99;34.96
15817;BME280;8009;50.070;8.232;2023-05-03T09:18:14;100982.69;;;16.77;34.46
15817;BME280;8009;50.070;8.232;2023-05-03T09:20:44;100977.59;;;16.40;34.61
15817;BME280;8009;50.070;8.232;2023-05-03T09:23:16;100981.84;;;16.65;34.55
15817;BME280;8009;50.070;8.232;2023-05-03T09:25:46;100975.50;;;16.97;34.01
15817;BME280;8009;50.070;8.232;2023-05-03T09:28:15;100977.13;;;17.30;33.76
15817;BME280;8009;50.070;8.232;2023-05-03T09:30:47;100969.28;;;17.77;33.37
15817;BME280;8009;50.070;8.232;2023-05-03T09:33:16;100976.44;;;17.38;33.90
15817;BME280;8009;50.070;8.232;2023-05-03T09:35:57;100968.81;;;17.72;32.94
15817;BME280;8009;50.070;8.232;2023-05-03T09:38:26;100962.75;;;17.99;32.39
15817;BME280;8009;50.070;8.232;2023-05-03T09:40:55;100970.97;;;17.68;33.22
15817;BME280;8009;50.070;8.232;2023-05-03T09:43:23;100965.94;;;17.64;32.51
15817;BME280;8009;50.070;8.232;2023-05-03T09:46:07;100954.63;;;17.78;32.84
15817;BME280;8009;50.070;8.232;2023-05-03T09:48:36;100947.78;;;17.93;31.94
15817;BME280;8009;50.070;8.232;2023-05-03T09:51:05;100943.00;;;17.76;32.71
15817;BME280;8009;50.070;8.232;2023-05-03T09:53:35;100951.13;;;18.26;31.83
15817;BME280;8009;50.070;8.232;2023-05-03T09:56:05;100957.09;;;17.81;32.90
15817;BME280;8009;50.070;8.232;2023-05-03T09:58:34;100949.66;;;18.02;32.10
15817;BME280;8009;50.070;8.232;2023-05-03T10:01:06;100943.31;;;17.92;32.83
15817;BME280;8009;50.070;8.232;2023-05-03T10:03:39;100942.91;;;17.57;33.20
15817;BME280;8009;50.070;8.232;2023-05-03T10:06:17;100951.03;;;17.77;33.92
15817;BME280;8009;50.070;8.232;2023-05-03T10:08:50;100955.44;;;18.19;32.04
15817;BME280;8009;50.070;8.232;2023-05-03T10:11:22;100938.91;;;18.30;32.01
15817;BME280;8009;50.070;8.232;2023-05-03T10:13:51;100931.88;;;18.47;32.75
15817;BME280;8009;50.070;8.232;2023-05-03T10:16:25;100952.47;;;18.70;33.10
15817;BME280;8009;50.070;8.232;2023-05-03T10:19:01;100950.31;;;17.45;33.57
15817;BME280;8009;50.070;8.232;2023-05-03T10:21:50;100942.50;;;18.50;33.90
15817;BME280;8009;50.070;8.232;2023-05-03T10:24:21;100945.53;;;18.57;32.88
15817;BME280;8009;50.070;8.232;2023-05-03T10:26:50;100952.59;;;18.59;34.75
15817;BME280;8009;50.070;8.232;2023-05-03T10:29:46;100941.94;;;18.85;33.75
15817;BME280;8009;50.070;8.232;2023-05-03T10:32:33;100933.44;;;18.59;32.71
15817;BME280;8009;50.070;8.232;2023-05-03T10:35:07;100925.75;;;19.02;32.82
15817;BME280;8009;50.070;8.232;2023-05-03T10:37:36;100934.44;;;18.87;33.28
15817;BME280;8009;50.070;8.232;2023-05-03T10:40:09;100930.25;;;18.54;31.98
15817;BME280;8009;50.070;8.232;2023-05-03T10:42:39;100917.31;;;18.56;32.38
15817;BME280;8009;50.070;8.232;2023-05-03T10:45:19;100924.81;;;18.73;33.09
15817;BME280;8009;50.070;8.232;2023-05-03T10:50:56;100918.91;;;18.49;32.50
15817;BME280;8009;50.070;8.232;2023-05-03T10:53:35;100908.69;;;18.32;33.05
15817;BME280;8009;50.070;8.232;2023-05-03T10:56:05;100906.22;;;18.77;32.38
15817;BME280;8009;50.070;8.232;2023-05-03T10:58:36;100914.59;;;18.37;32.50
15817;BME280;8009;50.070;8.232;2023-05-03T11:01:06;100904.78;;;18.63;32.23
15817;BME280;8009;50.070;8.232;2023-05-03T11:03:42;100901.31;;;18.61;33.28
15817;BME280;8009;50.070;8.232;2023-05-03T11:06:33;100896.41;;;18.84;31.52
15817;BME280;8009;50.070;8.232;2023-05-03T11:09:03;100893.56;;;18.66;31.32
15817;BME280;8009;50.070;8.232;2023-05-03T11:11:36;100891.69;;;18.57;31.97
15817;BME280;8009;50.070;8.232;2023-05-03T11:14:09;100889.56;;;18.22;32.78
15817;BME280;8009;50.070;8.232;2023-05-03T11:16:40;100897.56;;;17.85;32.26
15817;BME280;8009;50.070;8.232;2023-05-03T11:19:12;100884.78;;;19.19;31.66
15817;BME280;8009;50.070;8.232;2023-05-03T11:21:44;100884.03;;;18.90;30.89
15817;BME280;8009;50.070;8.232;2023-05-03T11:24:12;100884.94;;;18.51;30.98
15817;BME280;8009;50.070;8.232;2023-05-03T11:26:41;100875.59;;;18.44;31.01
15817;BME280;8009;50.070;8.232;2023-05-03T11:29:09;100873.78;;;18.92;31.59
15817;BME280;8009;50.070;8.232;2023-05-03T11:31:38;100869.38;;;18.42;30.81
15817;BME280;8009;50.070;8.232;2023-05-03T11:34:07;100872.09;;;18.62;32.29
15817;BME280;8009;50.070;8.232;2023-05-03T11:36:35;100877.63;;;18.13;31.55
15817;BME280;8009;50.070;8.232;2023-05-03T11:39:06;100868.06;;;18.85;32.21
15817;BME280;8009;50.070;8.232;2023-05-03T11:41:35;100858.50;;;18.99;32.02
15817;BME280;8009;50.070;8.232;2023-05-03T11:44:04;100861.06;;;18.15;31.41
15817;BME280;8009;50.070;8.232;2023-05-03T11:46:34;100866.25;;;18.18;31.01
15817;BME280;8009;50.070;8.232;2023-05-03T11:49:04;100857.03;;;18.19;31.54
15817;BME280;8009;50.070;8.232;2023-05-03T11:51:32;100848.34;;;18.82;31.53
15817;BME280;8009;50.070;8.232;2023-05-03T11:54:02;100848.00;;;18.09;31.81
15817;BME280;8009;50.070;8.232;2023-05-03T11:56:39;100843.53;;;17.78;31.53
15817;BME280;8009;50.070;8.232;2023-05-03T11:59:07;100839.34;;;18.23;31.71
15817;BME280;8009;50.070;8.232;2023-05-03T12:01:36;100838.78;;;18.00;31.79
15817;BME280;8009;50.070;8.232;2023-05-03T12:04:04;100840.78;;;18.27;33.10
15817;BME280;8009;50.070;8.232;2023-05-03T12:06:35;100835.47;;;18.06;31.91
15817;BME280;8009;50.070;8.232;2023-05-03T12:09:12;100837.63;;;18.22;31.68
15817;BME280;8009;50.070;8.232;2023-05-03T12:11:43;100832.81;;;18.53;32.28
15817;BME280;8009;50.070;8.232;2023-05-03T12:14:13;100831.69;;;19.03;31.98
15817;BME280;8009;50.070;8.232;2023-05-03T12:16:46;100845.00;;;19.15;31.77
15817;BME280;8009;50.070;8.232;2023-05-03T12:19:22;100833.84;;;18.99;31.85
15817;BME280;8009;50.070;8.232;2023-05-03T12:21:54;100838.78;;;18.10;31.19
15817;BME280;8009;50.070;8.232;2023-05-03T12:24:23;100833.72;;;18.15;31.13
15817;BME280;8009;50.070;8.232;2023-05-03T12:26:54;100821.72;;;18.64;32.25
15817;BME280;8009;50.070;8.232;2023-05-03T12:29:22;100826.94;;;18.48;31.75
15817;BME280;8009;50.070;8.232;2023-05-03T12:31:52;100829.13;;;18.15;31.60
15817;BME280;8009;50.070;8.232;2023-05-03T12:34:20;100822.06;;;18.32;31.23
15817;BME280;8009;50.070;8.232;2023-05-03T12:36:48;100827.13;;;17.98;31.32
15817;BME280;8009;50.070;8.232;2023-05-03T12:39:16;100819.94;;;17.87;30.94
15817;BME280;8009;50.070;8.232;2023-05-03T12:41:45;100820.84;;;18.64;30.90
15817;BME280;8009;50.070;8.232;2023-05-03T12:44:16;100829.00;;;18.17;31.60
15817;BME280;8009;50.070;8.232;2023-05-03T12:46:45;100805.13;;;17.99;31.59
15817;BME280;8009;50.070;8.232;2023-05-03T12:49:14;100810.72;;;18.17;31.53
15817;BME280;8009;50.070;8.232;2023-05-03T12:51:42;100809.28;;;18.89;38.57
15817;BME280;8009;50.070;8.232;2023-05-03T12:54:11;100809.25;;;18.33;30.53
15817;BME280;8009;50.070;8.232;2023-05-03T12:56:41;100797.47;;;18.32;31.20
15817;BME280;8009;50.070;8.232;2023-05-03T12:59:09;100790.75;;;17.97;31.73
15817;BME280;8009;50.070;8.232;2023-05-03T13:01:40;100788.66;;;18.48;31.01
15817;BME280;8009;50.070;8.232;2023-05-03T13:04:09;100782.34;;;18.38;31.72
15817;BME280;8009;50.070;8.232;2023-05-03T13:06:37;100769.34;;;18.59;33.69
15817;BME280;8009;50.070;8.232;2023-05-03T13:09:06;100765.44;;;18.99;30.49
15817;BME280;8009;50.070;8.232;2023-05-03T13:11:35;100777.88;;;18.37;30.70
15817;BME280;8009;50.070;8.232;2023-05-03T13:14:04;100770.16;;;18.79;29.41
15817;BME280;8009;50.070;8.232;2023-05-03T13:16:32;100769.97;;;18.81;31.36
15817;BME280;8009;50.070;8.232;2023-05-03T13:19:05;100771.44;;;18.28;29.85
15817;BME280;8009;50.070;8.232;2023-05-03T13:21:33;100760.88;;;18.90;30.01
15817;BME280;8009;50.070;8.232;2023-05-03T13:24:02;100770.16;;;19.07;28.88
15817;BME280;8009;50.070;8.232;2023-05-03T13:26:30;100759.75;;;18.83;29.22
15817;BME280;8009;50.070;8.232;2023-05-03T13:28:59;100767.88;;;17.98;30.11
15817;BME280;8009;50.070;8.232;2023-05-03T13:31:27;100753.00;;;18.40;29.08
15817;BME280;8009;50.070;8.232;2023-05-03T13:33:56;100751.06;;;18.50;28.95
15817;BME280;8009;50.070;8.232;2023-05-03T13:36:26;100747.47;;;18.49;27.63
15817;BME280;8009;50.070;8.232;2023-05-03T13:38:57;100750.53;;;18.37;28.47
15817;BME280;8009;50.070;8.232;2023-05-03T13:41:26;100749.31;;;18.02;28.90
15817;BME280;8009;50.070;8.232;2023-05-03T13:43:54;100732.03;;;18.58;29.79
15817;BME280;8009;50.070;8.232;2023-05-03T13:46:23;100748.72;;;18.08;29.00
15817;BME280;8009;50.070;8.232;2023-05-03T13:48:51;100739.50;;;18.19;29.70
15817;BME280;8009;50.070;8.232;2023-05-03T13:51:20;100737.00;;;18.45;29.89
15817;BME280;8009;50.070;8.232;2023-05-03T13:53:51;100731.47;;;18.92;33.50
15817;BME280;8009;50.070;8.232;2023-05-03T13:56:20;100737.56;;;18.39;29.01
15817;BME280;8009;50.070;8.232;2023-05-03T13:58:48;100740.41;;;18.57;29.62
15817;BME280;8009;50.070;8.232;2023-05-03T14:01:16;100735.66;;;18.02;28.72
15817;BME280;8009;50.070;8.232;2023-05-03T14:03:45;100728.03;;;18.06;28.61
15817;BME280;8009;50.070;8.232;2023-05-03T14:06:20;100711.03;;;18.21;27.77
15817;BME280;8009;50.070;8.232;2023-05-03T14:08:54;100716.50;;;18.21;28.16
15817;BME280;8009;50.070;8.232;2023-05-03T14:11:23;100712.75;;;18.22;28.06
15817;BME280;8009;50.070;8.232;2023-05-03T14:13:51;100715.81;;;18.00;28.03
15817;BME280;8009;50.070;8.232;2023-05-03T14:16:21;100703.75;;;18.02;27.91
15817;BME280;8009;50.070;8.232;2023-05-03T14:18:51;100694.81;;;18.47;31.38
15817;BME280;8009;50.070;8.232;2023-05-03T14:23:57;100693.94;;;18.10;27.62
15817;BME280;8009;50.070;8.232;2023-05-03T14:26:40;100687.59;;;18.56;30.06
15817;BME280;8009;50.070;8.232;2023-05-03T14:31:44;100695.78;;;18.19;28.47
15817;BME280;8009;50.070;8.232;2023-05-03T14:36:51;100687.16;;;18.14;28.84
15817;BME280;8009;50.070;8.232;2023-05-03T14:42:09;100687.00;;;18.25;27.76
15817;BME280;8009;50.070;8.232;2023-05-03T14:44:37;100681.88;;;17.73;28.57
15817;BME280;8009;50.070;8.232;2023-05-03T14:47:08;100674.88;;;17.81;27.99
15817;BME280;8009;50.070;8.232;2023-05-03T14:52:11;100673.78;;;18.11;28.81
15817;BME280;8009;50.070;8.232;2023-05-03T14:54:40;100656.31;;;18.31;29.90
15817;BME280;8009;50.070;8.232;2023-05-03T14:57:11;100666.44;;;18.21;28.79
15817;BME280;8009;50.070;8.232;2023-05-03T14:59:40;100669.75;;;18.15;29.73
15817;BME280;8009;50.070;8.232;2023-05-03T15:09:44;100667.69;;;18.26;29.36
15817;BME280;8009;50.070;8.232;2023-05-03T15:12:20;100661.16;;;18.47;28.55
15817;BME280;8009;50.070;8.232;2023-05-03T15:14:48;100663.50;;;17.95;28.52
15817;BME280;8009;50.070;8.232;2023-05-03T15:17:16;100667.69;;;17.80;29.65
15817;BME280;8009;50.070;8.232;2023-05-03T15:19:45;100666.22;;;17.66;29.49
15817;BME280;8009;50.070;8.232;2023-05-03T15:24:49;100663.41;;;18.24;31.22
15817;BME280;8009;50.070;8.232;2023-05-03T15:27:21;100662.34;;;18.35;30.51
15817;BME280;8009;50.070;8.232;2023-05-03T15:29:49;100662.16;;;18.09;30.08